createdAt,value
2018-06-28T00:01:47.802Z,5.80
2018-06-28T00:04:58.574Z,7.10
2018-06-28T00:08:09.305Z,5.53
2018-06-28T00:11:20.132Z,6.80
2018-06-28T00:14:30.266Z,6.60
2018-06-28T00:17:41.085Z,8.10
2018-06-28T00:20:51.569Z,10.38
2018-06-28T00:24:01.614Z,7.83
2018-06-28T00:27:11.501Z,6.67
2018-06-28T00:30:21.560Z,8.03
2018-06-28T00:33:32.196Z,8.55
2018-06-28T00:36:42.450Z,8.18
2018-06-28T00:39:53.564Z,7.12
2018-06-28T00:43:04.378Z,6.10
2018-06-28T00:46:15.117Z,7.67
2018-06-28T00:49:25.917Z,8.35
2018-06-28T00:52:36.446Z,6.40
2018-06-28T00:55:47.217Z,6.97
2018-06-28T00:58:57.213Z,7.50
2018-06-28T01:02:07.225Z,7.05
2018-06-28T01:05:24.469Z,6.05
2018-06-28T01:08:35.092Z,6.05
2018-06-28T01:11:46.163Z,7.62
2018-06-28T01:14:56.997Z,7.90
2018-06-28T01:18:07.566Z,9.25
2018-06-28T01:21:17.637Z,8.05
2018-06-28T01:24:27.678Z,7.47
2018-06-28T01:27:38.142Z,9.80
2018-06-28T01:30:48.599Z,7.67
2018-06-28T01:33:58.996Z,8.23
2018-06-28T01:37:09.440Z,7.10
2018-06-28T01:40:20.709Z,6.10
2018-06-28T01:43:42.509Z,7.85
2018-06-28T01:46:53.196Z,7.60
2018-06-28T01:50:03.897Z,9.33
2018-06-28T01:53:14.552Z,7.70
2018-06-28T01:56:24.403Z,7.00
2018-06-28T01:59:34.573Z,7.78
2018-06-28T02:02:45.253Z,8.00
2018-06-28T02:05:56.623Z,9.88
2018-06-28T02:09:08.896Z,6.58
2018-06-28T02:12:18.829Z,7.33
2018-06-28T02:15:28.583Z,7.53
2018-06-28T02:18:39.088Z,9.25
2018-06-28T02:21:49.493Z,10.03
2018-06-28T02:25:00.472Z,7.90
2018-06-28T02:28:11.045Z,5.95
2018-06-28T02:31:21.287Z,9.30
2018-06-28T02:34:32.027Z,8.65
2018-06-28T02:37:41.970Z,8.38
2018-06-28T02:40:52.050Z,7.12
2018-06-28T02:44:02.180Z,8.18
2018-06-28T02:47:12.769Z,7.67
2018-06-28T02:50:23.261Z,6.80
2018-06-28T02:53:33.610Z,7.28
2018-06-28T02:56:44.342Z,7.05
2018-06-28T02:59:53.960Z,8.55
2018-06-28T03:03:04.509Z,7.40
2018-06-28T03:06:15.374Z,11.57
2018-06-28T03:09:25.510Z,8.00
2018-06-28T03:12:36.374Z,9.13
2018-06-28T03:15:47.001Z,9.53
2018-06-28T03:18:57.245Z,7.25
2018-06-28T03:22:08.383Z,9.73
2018-06-28T03:25:18.644Z,7.85
2018-06-28T03:28:29.624Z,8.18
2018-06-28T03:31:39.501Z,7.72
2018-06-28T03:34:49.551Z,8.35
2018-06-28T03:38:00.236Z,7.12
2018-06-28T03:41:11.530Z,10.05
2018-06-28T03:44:21.774Z,8.30
2018-06-28T03:47:32.057Z,7.95
2018-06-28T03:50:42.499Z,9.65
2018-06-28T03:53:52.446Z,7.28
2018-06-28T03:57:02.889Z,8.08
2018-06-28T04:00:12.826Z,8.13
2018-06-28T04:03:22.991Z,6.85
2018-06-28T04:06:33.258Z,7.35
2018-06-28T04:09:43.839Z,9.00
2018-06-28T04:12:54.769Z,8.38
2018-06-28T04:16:05.957Z,7.78
2018-06-28T04:19:16.463Z,8.08
2018-06-28T04:22:30.859Z,6.60
2018-06-28T04:25:41.494Z,11.95
2018-06-28T04:28:52.333Z,10.20
2018-06-28T04:32:03.164Z,11.53
2018-06-28T04:35:13.493Z,10.88
2018-06-28T04:38:24.329Z,11.83
2018-06-28T04:41:35.273Z,9.00
2018-06-28T04:44:45.468Z,11.22
2018-06-28T04:47:56.233Z,11.43
2018-06-28T04:51:07.189Z,10.25
2018-06-28T04:54:18.096Z,10.70
2018-06-28T04:57:28.889Z,9.73
2018-06-28T05:00:39.972Z,9.03
2018-06-28T05:03:50.573Z,9.80
2018-06-28T05:07:00.829Z,9.48
2018-06-28T05:10:11.373Z,9.18
2018-06-28T05:13:21.904Z,10.32
2018-06-28T05:16:32.437Z,9.30
2018-06-28T05:19:42.834Z,8.40
2018-06-28T05:22:52.862Z,8.55
2018-06-28T05:26:03.974Z,8.45
2018-06-28T05:29:14.107Z,10.18
2018-06-28T05:32:24.822Z,7.90
2018-06-28T05:35:34.875Z,7.03
2018-06-28T05:38:45.390Z,9.00
2018-06-28T05:41:57.330Z,7.25
2018-06-28T05:45:07.803Z,9.53
2018-06-28T05:48:17.956Z,10.65
2018-06-28T05:51:27.918Z,9.70
2018-06-28T05:54:38.021Z,10.88
2018-06-28T05:57:48.655Z,10.00
2018-06-28T06:00:58.770Z,9.40
2018-06-28T06:04:09.575Z,12.07
2018-06-28T06:07:20.368Z,10.78
2018-06-28T06:10:31.050Z,12.25
2018-06-28T06:13:41.785Z,8.35
2018-06-28T06:16:52.444Z,10.40
2018-06-28T06:20:03.389Z,10.90
2018-06-28T06:23:13.730Z,9.60
2018-06-28T06:26:24.477Z,11.28
2018-06-28T06:29:35.336Z,11.65
2018-06-28T06:32:46.073Z,12.65
2018-06-28T06:35:56.166Z,11.10
2018-06-28T06:39:09.232Z,10.32
2018-06-28T06:42:20.262Z,10.60
2018-06-28T06:45:30.990Z,9.90
2018-06-28T06:48:41.696Z,11.30
2018-06-28T06:51:52.301Z,9.50
2018-06-28T06:55:02.655Z,10.88
2018-06-28T06:58:12.558Z,11.83
2018-06-28T07:01:22.109Z,12.58
2018-06-28T07:04:32.004Z,8.70
2018-06-28T07:07:43.062Z,9.40
2018-06-28T07:10:53.105Z,9.48
2018-06-28T07:14:03.065Z,11.28
2018-06-28T07:17:13.418Z,11.15
2018-06-28T07:20:23.507Z,11.48
2018-06-28T07:23:33.961Z,14.95
2018-06-28T07:26:44.845Z,10.98
2018-06-28T07:29:55.335Z,11.30
2018-06-28T07:33:06.159Z,11.20
2018-06-28T07:36:17.545Z,15.08
2018-06-28T07:39:27.562Z,14.23
2018-06-28T07:42:38.022Z,10.23
2018-06-28T07:45:48.738Z,11.40
2018-06-28T07:48:58.878Z,12.88
2018-06-28T07:52:09.522Z,9.98
2018-06-28T07:55:19.651Z,8.18
2018-06-28T07:58:30.279Z,10.82
2018-06-28T08:01:41.194Z,7.95
2018-06-28T08:04:51.777Z,7.58
2018-06-28T08:08:02.537Z,10.35
2018-06-28T08:11:13.243Z,8.33
2018-06-28T08:14:23.129Z,6.90
2018-06-28T08:17:34.110Z,6.78
2018-06-28T08:20:44.927Z,7.72
2018-06-28T08:23:55.792Z,9.03
2018-06-28T08:27:06.933Z,8.03
2018-06-28T08:30:17.389Z,9.45
2018-06-28T08:33:27.309Z,10.88
2018-06-28T08:36:37.998Z,10.15
2018-06-28T08:39:48.271Z,9.18
2018-06-28T08:42:59.132Z,9.28
2018-06-28T08:46:09.862Z,4.97
2018-06-28T08:49:20.634Z,7.42
2018-06-28T08:52:31.441Z,6.53
2018-06-28T08:55:44.599Z,8.33
2018-06-28T08:58:55.082Z,6.03
2018-06-28T09:02:06.112Z,7.55
2018-06-28T09:05:16.665Z,5.00
2018-06-28T09:08:26.501Z,6.75
2018-06-28T09:11:38.759Z,5.40
2018-06-28T09:14:49.330Z,4.42
2018-06-28T09:17:59.281Z,4.87
2018-06-28T09:21:10.310Z,5.12
2018-06-28T09:24:20.814Z,5.35
2018-06-28T09:27:30.661Z,5.08
2018-06-28T09:30:41.570Z,4.97
2018-06-28T09:33:52.281Z,5.30
2018-06-28T09:37:02.947Z,4.25
2018-06-28T09:40:13.654Z,5.80
2018-06-28T09:43:23.677Z,4.13
2018-06-28T09:46:34.712Z,6.35
2018-06-28T09:49:45.208Z,6.05
2018-06-28T09:52:54.989Z,5.42
2018-06-28T09:56:05.295Z,4.90
2018-06-28T09:59:15.339Z,6.07
2018-06-28T10:02:25.155Z,4.33
2018-06-28T10:05:35.842Z,7.35
2018-06-28T10:08:45.889Z,6.10
2018-06-28T10:11:56.462Z,6.53
2018-06-28T10:15:07.251Z,5.00
2018-06-28T10:18:17.763Z,6.85
2018-06-28T10:21:27.717Z,4.33
2018-06-28T10:24:38.599Z,7.08
2018-06-28T10:27:49.580Z,4.35
2018-06-28T10:31:00.389Z,5.92
2018-06-28T10:34:11.250Z,5.90
2018-06-28T10:37:22.470Z,4.22
2018-06-28T10:40:32.935Z,4.92
2018-06-28T10:43:44.157Z,5.50
2018-06-28T10:46:54.240Z,5.00
2018-06-28T10:50:05.637Z,5.30
2018-06-28T10:53:15.758Z,5.50
2018-06-28T10:56:26.445Z,3.50
2018-06-28T10:59:37.515Z,4.47
2018-06-28T11:02:51.647Z,6.08
2018-06-28T11:06:02.171Z,3.60
2018-06-28T11:09:12.301Z,4.10
2018-06-28T11:12:22.916Z,5.92
2018-06-28T11:15:33.638Z,4.22
2018-06-28T11:18:44.441Z,4.20
2018-06-28T11:21:55.093Z,4.45
2018-06-28T11:25:05.755Z,4.28
2018-06-28T11:28:16.402Z,4.62
2018-06-28T11:31:27.079Z,3.45
2018-06-28T11:34:37.122Z,4.83
2018-06-28T11:37:47.737Z,3.50
2018-06-28T11:40:58.205Z,4.50
2018-06-28T11:44:10.086Z,5.85
2018-06-28T11:47:20.653Z,4.08
2018-06-28T11:50:30.979Z,4.28
2018-06-28T11:53:41.186Z,3.60
2018-06-28T11:56:51.878Z,3.55
2018-06-28T12:00:02.731Z,4.72
2018-06-28T12:03:13.452Z,3.37
2018-06-28T12:06:24.184Z,2.08
2018-06-28T12:09:34.684Z,4.90
2018-06-28T12:12:45.920Z,4.67
2018-06-28T12:15:56.400Z,4.65
2018-06-28T12:19:07.152Z,4.12
2018-06-28T12:22:17.631Z,4.85
2018-06-28T12:25:27.841Z,3.77
2018-06-28T12:28:38.165Z,5.17
2018-06-28T12:31:49.112Z,4.12
2018-06-28T12:34:59.237Z,4.50
2018-06-28T12:38:09.857Z,4.37
2018-06-28T12:41:20.944Z,4.17
2018-06-28T12:44:31.800Z,4.62
2018-06-28T12:47:56.637Z,4.80
2018-06-28T12:51:07.123Z,5.40
2018-06-28T12:54:17.817Z,4.58
2018-06-28T12:57:28.344Z,5.10
2018-06-28T13:00:39.234Z,4.10
2018-06-28T13:03:50.236Z,4.25
2018-06-28T13:07:00.962Z,6.12
2018-06-28T13:10:13.814Z,4.70
2018-06-28T13:13:24.110Z,6.42
2018-06-28T13:16:34.650Z,3.98
2018-06-28T13:19:44.598Z,5.62
2018-06-28T13:22:55.211Z,8.18
2018-06-28T13:26:05.370Z,7.33
2018-06-28T13:29:16.288Z,7.25
2018-06-28T13:32:26.835Z,6.17
2018-06-28T13:35:37.382Z,8.65
2018-06-28T13:38:48.132Z,6.47
2018-06-28T13:41:58.904Z,6.15
2018-06-28T13:45:10.630Z,7.30
2018-06-28T13:48:21.561Z,6.12
2018-06-28T13:51:32.220Z,6.05
2018-06-28T13:54:42.152Z,8.20
2018-06-28T13:57:52.323Z,6.55
2018-06-28T14:01:02.333Z,6.78
2018-06-28T14:04:12.616Z,8.25
2018-06-28T14:07:23.442Z,8.13
2018-06-28T14:10:34.334Z,5.33
2018-06-28T14:13:44.843Z,6.80
2018-06-28T14:16:55.791Z,8.18
2018-06-28T14:20:07.735Z,7.12
2018-06-28T14:23:18.004Z,10.05
2018-06-28T14:26:28.129Z,7.35
2018-06-28T14:29:38.206Z,8.03
2018-06-28T14:32:48.121Z,8.60
2018-06-28T14:35:58.695Z,8.60
2018-06-28T14:39:09.895Z,6.72
2018-06-28T14:42:20.109Z,5.80
2018-06-28T14:45:30.851Z,6.97
2018-06-28T14:48:41.183Z,6.22
2018-06-28T14:51:51.873Z,8.20
2018-06-28T14:55:02.975Z,8.23
2018-06-28T14:58:13.365Z,7.42
2018-06-28T15:01:24.057Z,5.78
2018-06-28T15:04:34.763Z,6.70
2018-06-28T15:07:45.435Z,6.70
2018-06-28T15:10:55.438Z,8.45
2018-06-28T15:14:05.867Z,8.00
2018-06-28T15:17:16.059Z,8.33
2018-06-28T15:20:26.319Z,6.58
2018-06-28T15:23:37.184Z,5.00
2018-06-28T15:26:47.436Z,5.45
2018-06-28T15:29:57.433Z,9.85
2018-06-28T15:33:07.585Z,6.10
2018-06-28T15:36:20.071Z,6.83
2018-06-28T15:39:31.816Z,5.35
2018-06-28T15:42:43.716Z,7.78
2018-06-28T15:45:55.488Z,6.45
2018-06-28T15:49:06.776Z,5.78
2018-06-28T15:52:18.026Z,6.15
2018-06-28T15:55:30.768Z,7.60
2018-06-28T15:58:43.423Z,5.78
2018-06-28T16:01:54.137Z,5.58
2018-06-28T16:05:05.414Z,5.85
2018-06-28T16:08:15.251Z,4.50
2018-06-28T16:11:25.497Z,5.03
2018-06-28T16:14:36.306Z,6.00
2018-06-28T16:17:47.017Z,4.90
2018-06-28T16:20:57.931Z,6.60
2018-06-28T16:24:09.115Z,6.10
2018-06-28T16:27:19.977Z,5.42
2018-06-28T16:30:30.502Z,5.50
2018-06-28T16:33:41.103Z,4.55
2018-06-28T16:36:52.116Z,8.45
2018-06-28T16:40:02.746Z,6.87
2018-06-28T16:43:13.545Z,6.92
2018-06-28T16:46:25.037Z,6.05
2018-06-28T16:49:36.057Z,8.68
2018-06-28T16:52:46.458Z,7.62
2018-06-28T16:55:57.388Z,6.30
2018-06-28T16:59:08.141Z,8.38
2018-06-28T17:02:18.868Z,8.25
2018-06-28T17:05:28.940Z,6.50
2018-06-28T17:08:39.191Z,9.55
2018-06-28T17:11:49.943Z,7.47
2018-06-28T17:15:01.286Z,7.45
2018-06-28T17:18:11.548Z,9.58
2018-06-28T17:21:21.504Z,6.78
2018-06-28T17:24:31.840Z,8.18
2018-06-28T17:27:42.759Z,7.90
2018-06-28T17:30:52.660Z,7.05
2018-06-28T17:34:04.572Z,6.70
2018-06-28T17:37:15.630Z,7.17
2018-06-28T17:40:26.668Z,7.60
2018-06-28T17:43:37.596Z,6.37
2018-06-28T17:46:48.922Z,7.80
2018-06-28T17:49:59.172Z,6.08
2018-06-28T17:53:10.075Z,7.30
2018-06-28T17:56:20.687Z,8.18
2018-06-28T17:59:30.832Z,8.28
2018-06-28T18:02:42.471Z,10.50
2018-06-28T18:05:53.984Z,8.25
2018-06-28T18:09:07.510Z,9.70
2018-06-28T18:12:18.485Z,7.20
2018-06-28T18:15:28.965Z,10.78
2018-06-28T18:18:39.754Z,8.68
2018-06-28T18:21:50.248Z,7.35
2018-06-28T18:25:01.733Z,8.70
2018-06-28T18:28:12.529Z,11.18
2018-06-28T18:31:24.096Z,10.10
2018-06-28T18:34:34.378Z,10.72
2018-06-28T18:37:44.376Z,8.35
2018-06-28T18:40:54.780Z,8.30
2018-06-28T18:44:05.393Z,11.50
2018-06-28T18:47:16.967Z,8.95
2018-06-28T18:50:27.180Z,8.70
2018-06-28T18:53:37.722Z,9.43
2018-06-28T18:56:47.807Z,9.20
2018-06-28T18:59:59.246Z,9.55
2018-06-28T19:03:09.847Z,7.15
2018-06-28T19:06:20.792Z,8.75
2018-06-28T19:09:36.740Z,9.15
2018-06-28T19:12:46.929Z,8.45
2018-06-28T19:16:02.324Z,7.78
2018-06-28T19:19:13.005Z,9.15
2018-06-28T19:22:28.527Z,9.75
2018-06-28T19:25:39.253Z,10.13
2018-06-28T19:28:49.766Z,8.85
2018-06-28T19:32:05.727Z,10.35
2018-06-28T19:35:16.389Z,9.78
2018-06-28T19:38:32.764Z,8.85
2018-06-28T19:41:48.899Z,9.18
2018-06-28T19:44:58.975Z,9.75
2018-06-28T19:48:09.740Z,11.83
2018-06-28T19:51:25.622Z,9.40
2018-06-28T19:54:35.878Z,10.93
2018-06-28T19:57:46.614Z,9.38
2018-06-28T20:01:02.325Z,8.15
2018-06-28T20:04:13.718Z,9.85
2018-06-28T20:07:24.420Z,9.48
2018-06-28T20:10:35.205Z,8.73
2018-06-28T20:13:51.520Z,8.70
2018-06-28T20:17:07.404Z,8.75
2018-06-28T20:20:19.631Z,10.23
2018-06-28T20:23:29.949Z,10.82
2018-06-28T20:26:45.480Z,9.78
2018-06-28T20:30:01.659Z,9.65
2018-06-28T20:33:17.333Z,9.35
2018-06-28T20:36:27.708Z,11.28
2018-06-28T20:39:42.943Z,9.10
2018-06-28T20:42:53.331Z,9.60
2018-06-28T20:46:03.827Z,11.00
2018-06-28T20:49:14.991Z,10.28
2018-06-28T20:52:25.289Z,12.15
2018-06-28T20:55:36.692Z,9.35
2018-06-28T20:58:46.990Z,9.25
2018-06-28T21:01:57.720Z,10.43
2018-06-28T21:05:08.338Z,10.23
2018-06-28T21:08:18.524Z,10.05
2018-06-28T21:11:29.174Z,10.85
2018-06-28T21:14:39.834Z,8.48
2018-06-28T21:17:51.056Z,10.30
2018-06-28T21:21:01.724Z,14.07
2018-06-28T21:24:12.333Z,9.50
2018-06-28T21:27:22.266Z,9.08
2018-06-28T21:30:33.276Z,11.70
2018-06-28T21:33:43.902Z,10.18
2018-06-28T21:36:53.912Z,10.15
2018-06-28T21:40:06.060Z,7.92
2018-06-28T21:43:16.240Z,9.43
2018-06-28T21:46:26.968Z,12.10
2018-06-28T21:49:37.223Z,10.05
2018-06-28T21:52:47.969Z,11.08
2018-06-28T21:55:58.833Z,9.25
2018-06-28T21:59:09.353Z,8.58
2018-06-28T22:02:20.633Z,11.70
2018-06-28T22:05:32.194Z,9.55
2018-06-28T22:08:42.099Z,9.63
2018-06-28T22:11:53.005Z,11.73
2018-06-28T22:15:03.056Z,10.80
2018-06-28T22:18:12.964Z,11.12
2018-06-28T22:21:23.754Z,10.63
2018-06-28T22:24:33.692Z,14.00
2018-06-28T22:27:44.073Z,8.93
2018-06-28T22:30:54.565Z,12.50
2018-06-28T22:34:05.174Z,12.35
2018-06-28T22:37:15.888Z,9.38
2018-06-28T22:40:26.816Z,10.70
2018-06-28T22:43:37.534Z,11.48
2018-06-28T22:46:48.441Z,12.58
2018-06-28T22:49:59.524Z,9.03
2018-06-28T22:53:10.013Z,10.63
2018-06-28T22:56:20.749Z,10.55
2018-06-28T22:59:30.938Z,11.45
2018-06-28T23:02:41.409Z,11.18
2018-06-28T23:05:51.828Z,9.65
2018-06-28T23:09:02.279Z,12.30
2018-06-28T23:12:13.034Z,9.80
2018-06-28T23:15:23.829Z,11.48
2018-06-28T23:18:34.165Z,10.75
2018-06-28T23:21:45.006Z,10.20
2018-06-28T23:24:54.958Z,13.75
2018-06-28T23:28:05.271Z,10.10
2018-06-28T23:31:15.573Z,9.58
2018-06-28T23:34:26.405Z,12.58
2018-06-28T23:37:36.413Z,9.90
2018-06-28T23:40:46.653Z,9.30
2018-06-28T23:43:57.373Z,12.20
2018-06-28T23:47:07.412Z,11.40
2018-06-28T23:50:18.735Z,9.68
2018-06-28T23:53:29.038Z,8.68
2018-06-28T23:56:39.665Z,10.23
2018-06-28T23:59:49.603Z,9.58
